Sp Dublin — 9HA2661 — position and weather

sailwx.info

Track history (hours):
 
Tides and Currents Weather Stations Pressure Air Temp Water Temp Dewpoint Dewpoint Depression Visibility Wind Speed Wind Dir Waves Ship Positions

Sp Dublin

Last reported at 2014-Sep-01 06:33 UTC. Time now 2014-Sep-01 07:33 UTC.
Position N 39°27' W 000°20'.

Length 83 m; draft 5.6 m.

Type: Tanker. MMSI: 215164000.

Date/timePositionNaut miles runAvg speedWind from/ knotsBaromVisibWave heightAir tempDewpointWater temp
2014-Sep-01 06:33N 39°27' W 000°20'0 0.0
2014-Sep-01 05:33N 39°27' W 000°20'0 0.0
2014-Sep-01 04:33N 39°27' W 000°20'0 0.0
2014-Sep-01 03:33N 39°27' W 000°20'0 0.0
2014-Sep-01 02:33N 39°27' W 000°20'0 0.0
2014-Sep-01 01:33N 39°27' W 000°20'0 0.0
2014-Sep-01 00:33N 39°27' W 000°20'0 0.0
2014-Aug-31 23:33N 39°27' W 000°20'0 0.0
2014-Aug-31 22:33N 39°27' W 000°20'0 0.0
2014-Aug-31 21:33N 39°27' W 000°20'0 0.0
2014-Aug-31 20:33N 39°27' W 000°20'0 0.0
2014-Aug-31 19:33N 39°27' W 000°20'0 0.0
2014-Aug-31 18:33N 39°27' W 000°20'0 0.0
2014-Aug-31 17:33N 39°27' W 000°20'0 0.0
2014-Aug-31 16:33N 39°27' W 000°20'0 0.0
2014-Aug-31 15:33N 39°27' W 000°20'0 0.0
2014-Aug-31 14:33N 39°27' W 000°20'0 0.0
2014-Aug-31 13:33N 39°27' W 000°20'0 0.0
2014-Aug-31 12:33N 39°27' W 000°20'0 0.0
2014-Aug-31 11:33N 39°27' W 000°20'0 0.0
2014-Aug-31 10:33N 39°27' W 000°20'0 0.0
2014-Aug-31 09:33N 39°27' W 000°20'0 0.0
2014-Aug-31 08:33N 39°27' W 000°20'0 0.0
2014-Aug-31 07:33N 39°27' W 000°20'0 0.0
2014-Aug-31 06:33N 39°27' W 000°20'0 0.0
2014-Aug-31 05:33N 39°27' W 000°20'0 0.0
2014-Aug-31 04:33N 39°27' W 000°20'1 1.0
2014-Aug-31 03:33N 39°26' W 000°19'0 0.0
2014-Aug-31 02:33N 39°26' W 000°19'0 0.0
2014-Aug-31 01:33N 39°26' W 000°19'0 0.0
2014-Aug-31 00:33N 39°26' W 000°19'0 0.0
2014-Aug-30 23:33N 39°26' W 000°19'0 0.0
2014-Aug-30 22:33N 39°26' W 000°19'0 0.0
2014-Aug-30 21:33N 39°26' W 000°19'1 0.8
2014-Aug-30 20:33N 39°27' W 000°19'0 0.3
2014-Aug-30 19:33N 39°27' W 000°19'0 0.0
2014-Aug-30 18:24N 39°27' W 000°19'0 0.0
2014-Aug-30 17:33N 39°27' W 000°19'0 0.1
2014-Aug-30 16:33N 39°27' W 000°20'0 0.0
2014-Aug-30 15:33N 39°27' W 000°20'0 0.0
2014-Aug-30 14:33N 39°27' W 000°20'1 0.2
2014-Aug-30 10:33N 39°27' W 000°19'1 0.6
2014-Aug-30 09:33N 39°27' W 000°20'0 0.0
2014-Aug-30 08:33N 39°27' W 000°20'0 0.0
2014-Aug-30 07:33N 39°27' W 000°20'0 0.0
2014-Aug-30 06:33N 39°27' W 000°20'0 0.0
2014-Aug-30 05:33N 39°27' W 000°20'0 0.0
2014-Aug-30 04:33N 39°27' W 000°20'0 0.0
2014-Aug-30 03:33N 39°27' W 000°20'0 0.0
2014-Aug-30 02:33N 39°27' W 000°20'0 0.0
2014-Aug-30 01:33N 39°27' W 000°20'0 0.0
2014-Aug-30 00:33N 39°27' W 000°20'0 0.0
2014-Aug-29 23:33N 39°27' W 000°20'0 0.0
2014-Aug-29 22:33N 39°27' W 000°20'0 0.0
2014-Aug-29 21:33N 39°27' W 000°20'0 0.0
2014-Aug-29 20:33N 39°27' W 000°20'0 0.4
2014-Aug-29 19:33N 39°27' W 000°19'4 4.2
2014-Aug-29 18:33N 39°30' W 000°15'8 6.3
2014-Aug-29 17:14N 39°38' W 000°13'5 0.8
2014-Aug-29 11:11N 39°33' W 000°14'5 6.6
2014-Aug-29 10:25N 39°29' W 000°16'4 1.0
2014-Aug-29 06:33N 39°26' W 000°20'0 0.0
2014-Aug-29 05:33N 39°26' W 000°20'1 0.9
2014-Aug-29 04:33N 39°27' W 000°19'0 0.3
2014-Aug-29 03:33N 39°27' W 000°19'0 0.0
2014-Aug-29 02:33N 39°27' W 000°19'0 0.0
2014-Aug-29 01:33N 39°27' W 000°19'0 0.0
2014-Aug-29 00:33N 39°27' W 000°19'0 0.0
2014-Aug-28 23:33N 39°27' W 000°19'0 0.0
2014-Aug-28 22:33N 39°27' W 000°19'0 0.0
2014-Aug-28 21:33N 39°27' W 000°19'0 0.0
2014-Aug-28 20:33N 39°27' W 000°19'0 0.0
2014-Aug-28 19:33N 39°27' W 000°19'0 0.0
2014-Aug-28 18:33N 39°27' W 000°19'0 0.0
2014-Aug-28 17:33N 39°27' W 000°19'1 1.2
2014-Aug-28 16:32N 39°26' W 000°20'0 0.0
2014-Aug-28 13:32N 39°26' W 000°20'1 1.2
2014-Aug-28 12:33N 39°27' W 000°19'0 0.0
2014-Aug-28 11:33N 39°27' W 000°19'0 0.0
2014-Aug-28 10:33N 39°27' W 000°19'0 0.1
2014-Aug-28 09:33N 39°27' W 000°20'0 0.1
2014-Aug-28 08:33N 39°27' W 000°19'0 0.1
2014-Aug-28 07:33N 39°27' W 000°19'0 0.4
2014-Aug-28 06:34N 39°27' W 000°20'0 0.0
2014-Aug-28 05:34N 39°27' W 000°20'0 0.0
2014-Aug-28 04:33N 39°27' W 000°20'0 0.0
2014-Aug-28 03:34N 39°27' W 000°20'0 0.0
2014-Aug-28 02:34N 39°27' W 000°20'0 0.0
2014-Aug-28 01:33N 39°27' W 000°20'0 0.0
2014-Aug-28 00:34N 39°27' W 000°20'0 0.0
2014-Aug-27 23:33N 39°27' W 000°20'0 0.0
2014-Aug-27 22:33N 39°27' W 000°20'0 0.0
2014-Aug-27 21:33N 39°27' W 000°20'0 0.0
2014-Aug-27 20:33N 39°27' W 000°20'0 0.0
2014-Aug-27 19:33N 39°27' W 000°20'0 0.0
2014-Aug-27 18:33N 39°27' W 000°20'1 0.9
2014-Aug-27 17:33N 39°26' W 000°20'0 0.0
2014-Aug-27 16:33N 39°26' W 000°20'0 0.0
2014-Aug-27 15:33N 39°26' W 000°20'0 0.0
2014-Aug-27 14:34N 39°26' W 000°20'1 0.8
2014-Aug-27 13:33N 39°27' W 000°19'0 0.1
2014-Aug-27 12:33N 39°27' W 000°20'0 0.0
2014-Aug-27 11:34N 39°27' W 000°20'0 0.0
2014-Aug-27 10:33N 39°27' W 000°20'0 0.0
2014-Aug-27 09:33N 39°27' W 000°20'0 0.0
2014-Aug-27 08:33N 39°27' W 000°20'0 0.0
2014-Aug-27 07:33N 39°27' W 000°20'0 0.0
2014-Aug-27 06:33N 39°27' W 000°20'0 0.0
2014-Aug-27 05:33N 39°27' W 000°20'0 0.0
2014-Aug-27 04:33N 39°27' W 000°20'0 0.0
2014-Aug-27 03:33N 39°27' W 000°20'0 0.0
2014-Aug-27 02:33N 39°27' W 000°20'0 0.0
2014-Aug-27 01:33N 39°27' W 000°20'0 0.0
2014-Aug-27 00:33N 39°27' W 000°20'0 0.0
2014-Aug-26 23:33N 39°27' W 000°20'1 0.7
2014-Aug-26 22:33N 39°27' W 000°19'0 0.1
2014-Aug-26 21:33N 39°27' W 000°19'0 0.0
2014-Aug-26 19:12N 39°27' W 000°19'0 0.0
2014-Aug-26 18:33N 39°27' W 000°19'0 0.0
2014-Aug-26 17:31N 39°27' W 000°19'0 0.0
2014-Aug-26 16:30N 39°27' W 000°19'0 0.0
2014-Aug-26 15:04N 39°27' W 000°19'0 0.0
2014-Aug-26 14:31N 39°27' W 000°19'0 0.0
2014-Aug-26 13:14N 39°27' W 000°19'0 0.4
2014-Aug-26 12:33N 39°27' W 000°19'1 0.6
2014-Aug-26 11:33N 39°27' W 000°20'0 0.0
2014-Aug-26 10:33N 39°27' W 000°20'0 0.0
2014-Aug-26 09:33N 39°27' W 000°20'0 0.0
2014-Aug-26 08:33N 39°27' W 000°20'0 0.0
2014-Aug-26 07:33N 39°27' W 000°20'0 0.0
2014-Aug-26 06:33N 39°27' W 000°20'0 0.0
2014-Aug-26 05:33N 39°27' W 000°20'0 0.0
2014-Aug-26 04:33N 39°27' W 000°20'0 0.1
2014-Aug-26 03:33N 39°27' W 000°19'1 0.8
2014-Aug-26 02:33N 39°27' W 000°18'0 0.0
2014-Aug-26 01:33N 39°27' W 000°18'0 0.0
2014-Aug-26 00:33N 39°27' W 000°18'0 0.2
2014-Aug-25 23:33N 39°26' W 000°18'0 0.0
2014-Aug-25 22:33N 39°26' W 000°18'0 0.0
2014-Aug-25 21:33N 39°26' W 000°18'0 0.0
2014-Aug-25 20:33N 39°26' W 000°18'0 0.0
2014-Aug-25 19:33N 39°26' W 000°18'0 0.0
2014-Aug-25 18:33N 39°26' W 000°18'0 0.0
2014-Aug-25 17:33N 39°26' W 000°18'0 0.0
2014-Aug-25 16:33N 39°26' W 000°18'1 0.5
2014-Aug-25 15:34N 39°27' W 000°19'0 0.1
2014-Aug-25 14:33N 39°27' W 000°19'0 0.0
2014-Aug-25 13:33N 39°27' W 000°19'0 0.0
2014-Aug-25 12:33N 39°27' W 000°19'0 0.0
2014-Aug-25 11:33N 39°27' W 000°19'1 0.9
2014-Aug-25 10:33N 39°26' W 000°20'0 0.0
2014-Aug-25 09:33N 39°26' W 000°20'0 0.0
2014-Aug-25 08:33N 39°26' W 000°20'0 0.0
2014-Aug-25 07:21N 39°26' W 000°20'0 0.3
2014-Aug-25 06:33N 39°26' W 000°19'1 0.7
2014-Aug-25 05:33N 39°27' W 000°19'0 0.0
2014-Aug-25 04:33N 39°27' W 000°19'0 0.0
2014-Aug-25 03:33N 39°27' W 000°19'0 0.0
2014-Aug-25 02:33N 39°27' W 000°19'0 0.0
2014-Aug-25 01:33N 39°27' W 000°19'0 0.0
2014-Aug-25 00:33N 39°27' W 000°19'0 0.0
2014-Aug-24 23:33N 39°27' W 000°19'0 0.0
2014-Aug-24 22:33N 39°27' W 000°19'0 0.0
2014-Aug-24 21:33N 39°27' W 000°19'0 0.0
2014-Aug-24 20:33N 39°27' W 000°19'1 0.6
2014-Aug-24 19:32N 39°27' W 000°19'0 0.0
2014-Aug-24 18:31N 39°27' W 000°19'0 0.0
2014-Aug-24 17:10N 39°27' W 000°19'1 1.0
2014-Aug-24 16:33N 39°27' W 000°19'0 0.0
2014-Aug-24 15:33N 39°27' W 000°19'0 0.0
2014-Aug-24 14:33N 39°27' W 000°19'0 0.0
2014-Aug-24 13:33N 39°27' W 000°19'0 0.0
2014-Aug-24 12:33N 39°27' W 000°19'0 0.0
2014-Aug-24 11:33N 39°27' W 000°19'0 0.0
2014-Aug-24 10:33N 39°27' W 000°19'0 0.0
2014-Aug-24 09:33N 39°27' W 000°19'0 0.0
2014-Aug-24 08:33N 39°27' W 000°19'0 0.1
2014-Aug-24 07:33N 39°27' W 000°19'0 0.2
2014-Aug-24 06:33N 39°27' W 000°19'0 0.0
2014-Aug-24 05:33N 39°27' W 000°19'0 0.0
2014-Aug-24 04:33N 39°27' W 000°19'0 0.2
2014-Aug-24 03:33N 39°27' W 000°19'0 0.0
2014-Aug-24 02:33N 39°27' W 000°19'0 0.0
2014-Aug-22 15:24N 39°27' W 000°19'  
Track history (hours):
 
Tides and Currents Weather Stations Pressure Air Temp Water Temp Dewpoint Dewpoint Depression Visibility Wind Speed Wind Dir Waves Ship Positions

Sp Dublin

Last reported at 2014-Sep-01 06:33 UTC. Time now 2014-Sep-01 07:33 UTC.
Position N 39°27' W 000°20'.

Length 83 m; draft 5.6 m.

Type: Tanker. MMSI: 215164000.

Date/timePositionNaut miles runAvg speedWind from/ knotsBaromVisibWave heightAir tempDewpointWater temp
2014-Sep-01 06:33N 39°27' W 000°20'0 0.0
2014-Sep-01 05:33N 39°27' W 000°20'0 0.0
2014-Sep-01 04:33N 39°27' W 000°20'0 0.0
2014-Sep-01 03:33N 39°27' W 000°20'0 0.0
2014-Sep-01 02:33N 39°27' W 000°20'0 0.0
2014-Sep-01 01:33N 39°27' W 000°20'0 0.0
2014-Sep-01 00:33N 39°27' W 000°20'0 0.0
2014-Aug-31 23:33N 39°27' W 000°20'0 0.0
2014-Aug-31 22:33N 39°27' W 000°20'0 0.0
2014-Aug-31 21:33N 39°27' W 000°20'0 0.0
2014-Aug-31 20:33N 39°27' W 000°20'0 0.0
2014-Aug-31 19:33N 39°27' W 000°20'0 0.0
2014-Aug-31 18:33N 39°27' W 000°20'0 0.0
2014-Aug-31 17:33N 39°27' W 000°20'0 0.0
2014-Aug-31 16:33N 39°27' W 000°20'0 0.0
2014-Aug-31 15:33N 39°27' W 000°20'0 0.0
2014-Aug-31 14:33N 39°27' W 000°20'0 0.0
2014-Aug-31 13:33N 39°27' W 000°20'0 0.0
2014-Aug-31 12:33N 39°27' W 000°20'0 0.0
2014-Aug-31 11:33N 39°27' W 000°20'0 0.0
2014-Aug-31 10:33N 39°27' W 000°20'0 0.0
2014-Aug-31 09:33N 39°27' W 000°20'0 0.0
2014-Aug-31 08:33N 39°27' W 000°20'0 0.0
2014-Aug-31 07:33N 39°27' W 000°20'0 0.0
2014-Aug-31 06:33N 39°27' W 000°20'0 0.0
2014-Aug-31 05:33N 39°27' W 000°20'0 0.0
2014-Aug-31 04:33N 39°27' W 000°20'1 1.0
2014-Aug-31 03:33N 39°26' W 000°19'0 0.0
2014-Aug-31 02:33N 39°26' W 000°19'0 0.0
2014-Aug-31 01:33N 39°26' W 000°19'0 0.0
2014-Aug-31 00:33N 39°26' W 000°19'0 0.0
2014-Aug-30 23:33N 39°26' W 000°19'0 0.0
2014-Aug-30 22:33N 39°26' W 000°19'0 0.0
2014-Aug-30 21:33N 39°26' W 000°19'1 0.8
2014-Aug-30 20:33N 39°27' W 000°19'0 0.3
2014-Aug-30 19:33N 39°27' W 000°19'0 0.0
2014-Aug-30 18:24N 39°27' W 000°19'0 0.0
2014-Aug-30 17:33N 39°27' W 000°19'0 0.1
2014-Aug-30 16:33N 39°27' W 000°20'0 0.0
2014-Aug-30 15:33N 39°27' W 000°20'0 0.0
2014-Aug-30 14:33N 39°27' W 000°20'1 0.2
2014-Aug-30 10:33N 39°27' W 000°19'1 0.6
2014-Aug-30 09:33N 39°27' W 000°20'0 0.0
2014-Aug-30 08:33N 39°27' W 000°20'0 0.0
2014-Aug-30 07:33N 39°27' W 000°20'0 0.0
2014-Aug-30 06:33N 39°27' W 000°20'0 0.0
2014-Aug-30 05:33N 39°27' W 000°20'0 0.0
2014-Aug-30 04:33N 39°27' W 000°20'0 0.0
2014-Aug-30 03:33N 39°27' W 000°20'0 0.0
2014-Aug-30 02:33N 39°27' W 000°20'0 0.0
2014-Aug-30 01:33N 39°27' W 000°20'0 0.0
2014-Aug-30 00:33N 39°27' W 000°20'0 0.0
2014-Aug-29 23:33N 39°27' W 000°20'0 0.0
2014-Aug-29 22:33N 39°27' W 000°20'0 0.0
2014-Aug-29 21:33N 39°27' W 000°20'0 0.0
2014-Aug-29 20:33N 39°27' W 000°20'0 0.4
2014-Aug-29 19:33N 39°27' W 000°19'4 4.2
2014-Aug-29 18:33N 39°30' W 000°15'8 6.3
2014-Aug-29 17:14N 39°38' W 000°13'5 0.8
2014-Aug-29 11:11N 39°33' W 000°14'5 6.6
2014-Aug-29 10:25N 39°29' W 000°16'4 1.0
2014-Aug-29 06:33N 39°26' W 000°20'0 0.0
2014-Aug-29 05:33N 39°26' W 000°20'1 0.9
2014-Aug-29 04:33N 39°27' W 000°19'0 0.3
2014-Aug-29 03:33N 39°27' W 000°19'0 0.0
2014-Aug-29 02:33N 39°27' W 000°19'0 0.0
2014-Aug-29 01:33N 39°27' W 000°19'0 0.0
2014-Aug-29 00:33N 39°27' W 000°19'0 0.0
2014-Aug-28 23:33N 39°27' W 000°19'0 0.0
2014-Aug-28 22:33N 39°27' W 000°19'0 0.0
2014-Aug-28 21:33N 39°27' W 000°19'0 0.0
2014-Aug-28 20:33N 39°27' W 000°19'0 0.0
2014-Aug-28 19:33N 39°27' W 000°19'0 0.0
2014-Aug-28 18:33N 39°27' W 000°19'0 0.0
2014-Aug-28 17:33N 39°27' W 000°19'1 1.2
2014-Aug-28 16:32N 39°26' W 000°20'0 0.0
2014-Aug-28 13:32N 39°26' W 000°20'1 1.2
2014-Aug-28 12:33N 39°27' W 000°19'0 0.0
2014-Aug-28 11:33N 39°27' W 000°19'0 0.0
2014-Aug-28 10:33N 39°27' W 000°19'0 0.1
2014-Aug-28 09:33N 39°27' W 000°20'0 0.1
2014-Aug-28 08:33N 39°27' W 000°19'0 0.1
2014-Aug-28 07:33N 39°27' W 000°19'0 0.4
2014-Aug-28 06:34N 39°27' W 000°20'0 0.0
2014-Aug-28 05:34N 39°27' W 000°20'0 0.0
2014-Aug-28 04:33N 39°27' W 000°20'0 0.0
2014-Aug-28 03:34N 39°27' W 000°20'0 0.0
2014-Aug-28 02:34N 39°27' W 000°20'0 0.0
2014-Aug-28 01:33N 39°27' W 000°20'0 0.0
2014-Aug-28 00:34N 39°27' W 000°20'0 0.0
2014-Aug-27 23:33N 39°27' W 000°20'0 0.0
2014-Aug-27 22:33N 39°27' W 000°20'0 0.0
2014-Aug-27 21:33N 39°27' W 000°20'0 0.0
2014-Aug-27 20:33N 39°27' W 000°20'0 0.0
2014-Aug-27 19:33N 39°27' W 000°20'0 0.0
2014-Aug-27 18:33N 39°27' W 000°20'1 0.9
2014-Aug-27 17:33N 39°26' W 000°20'0 0.0
2014-Aug-27 16:33N 39°26' W 000°20'0 0.0
2014-Aug-27 15:33N 39°26' W 000°20'0 0.0
2014-Aug-27 14:34N 39°26' W 000°20'1 0.8
2014-Aug-27 13:33N 39°27' W 000°19'0 0.1
2014-Aug-27 12:33N 39°27' W 000°20'0 0.0
2014-Aug-27 11:34N 39°27' W 000°20'0 0.0
2014-Aug-27 10:33N 39°27' W 000°20'0 0.0
2014-Aug-27 09:33N 39°27' W 000°20'0 0.0
2014-Aug-27 08:33N 39°27' W 000°20'0 0.0
2014-Aug-27 07:33N 39°27' W 000°20'0 0.0
2014-Aug-27 06:33N 39°27' W 000°20'0 0.0
2014-Aug-27 05:33N 39°27' W 000°20'0 0.0
2014-Aug-27 04:33N 39°27' W 000°20'0 0.0
2014-Aug-27 03:33N 39°27' W 000°20'0 0.0
2014-Aug-27 02:33N 39°27' W 000°20'0 0.0
2014-Aug-27 01:33N 39°27' W 000°20'0 0.0
2014-Aug-27 00:33N 39°27' W 000°20'0 0.0
2014-Aug-26 23:33N 39°27' W 000°20'1 0.7
2014-Aug-26 22:33N 39°27' W 000°19'0 0.1
2014-Aug-26 21:33N 39°27' W 000°19'0 0.0
2014-Aug-26 19:12N 39°27' W 000°19'0 0.0
2014-Aug-26 18:33N 39°27' W 000°19'0 0.0
2014-Aug-26 17:31N 39°27' W 000°19'0 0.0
2014-Aug-26 16:30N 39°27' W 000°19'0 0.0
2014-Aug-26 15:04N 39°27' W 000°19'0 0.0
2014-Aug-26 14:31N 39°27' W 000°19'0 0.0
2014-Aug-26 13:14N 39°27' W 000°19'0 0.4
2014-Aug-26 12:33N 39°27' W 000°19'1 0.6
2014-Aug-26 11:33N 39°27' W 000°20'0 0.0
2014-Aug-26 10:33N 39°27' W 000°20'0 0.0
2014-Aug-26 09:33N 39°27' W 000°20'0 0.0
2014-Aug-26 08:33N 39°27' W 000°20'0 0.0
2014-Aug-26 07:33N 39°27' W 000°20'0 0.0
2014-Aug-26 06:33N 39°27' W 000°20'0 0.0
2014-Aug-26 05:33N 39°27' W 000°20'0 0.0
2014-Aug-26 04:33N 39°27' W 000°20'0 0.1
2014-Aug-26 03:33N 39°27' W 000°19'1 0.8
2014-Aug-26 02:33N 39°27' W 000°18'0 0.0
2014-Aug-26 01:33N 39°27' W 000°18'0 0.0
2014-Aug-26 00:33N 39°27' W 000°18'0 0.2
2014-Aug-25 23:33N 39°26' W 000°18'0 0.0
2014-Aug-25 22:33N 39°26' W 000°18'0 0.0
2014-Aug-25 21:33N 39°26' W 000°18'0 0.0
2014-Aug-25 20:33N 39°26' W 000°18'0 0.0
2014-Aug-25 19:33N 39°26' W 000°18'0 0.0
2014-Aug-25 18:33N 39°26' W 000°18'0 0.0
2014-Aug-25 17:33N 39°26' W 000°18'0 0.0
2014-Aug-25 16:33N 39°26' W 000°18'1 0.5
2014-Aug-25 15:34N 39°27' W 000°19'0 0.1
2014-Aug-25 14:33N 39°27' W 000°19'0 0.0
2014-Aug-25 13:33N 39°27' W 000°19'0 0.0
2014-Aug-25 12:33N 39°27' W 000°19'0 0.0
2014-Aug-25 11:33N 39°27' W 000°19'1 0.9
2014-Aug-25 10:33N 39°26' W 000°20'0 0.0
2014-Aug-25 09:33N 39°26' W 000°20'0 0.0
2014-Aug-25 08:33N 39°26' W 000°20'0 0.0
2014-Aug-25 07:21N 39°26' W 000°20'0 0.3
2014-Aug-25 06:33N 39°26' W 000°19'1 0.7
2014-Aug-25 05:33N 39°27' W 000°19'0 0.0
2014-Aug-25 04:33N 39°27' W 000°19'0 0.0
2014-Aug-25 03:33N 39°27' W 000°19'0 0.0
2014-Aug-25 02:33N 39°27' W 000°19'0 0.0
2014-Aug-25 01:33N 39°27' W 000°19'0 0.0
2014-Aug-25 00:33N 39°27' W 000°19'0 0.0
2014-Aug-24 23:33N 39°27' W 000°19'0 0.0
2014-Aug-24 22:33N 39°27' W 000°19'0 0.0
2014-Aug-24 21:33N 39°27' W 000°19'0 0.0
2014-Aug-24 20:33N 39°27' W 000°19'1 0.6
2014-Aug-24 19:32N 39°27' W 000°19'0 0.0
2014-Aug-24 18:31N 39°27' W 000°19'0 0.0
2014-Aug-24 17:10N 39°27' W 000°19'1 1.0
2014-Aug-24 16:33N 39°27' W 000°19'0 0.0
2014-Aug-24 15:33N 39°27' W 000°19'0 0.0
2014-Aug-24 14:33N 39°27' W 000°19'0 0.0
2014-Aug-24 13:33N 39°27' W 000°19'0 0.0
2014-Aug-24 12:33N 39°27' W 000°19'0 0.0
2014-Aug-24 11:33N 39°27' W 000°19'0 0.0
2014-Aug-24 10:33N 39°27' W 000°19'0 0.0
2014-Aug-24 09:33N 39°27' W 000°19'0 0.0
2014-Aug-24 08:33N 39°27' W 000°19'0 0.1
2014-Aug-24 07:33N 39°27' W 000°19'0 0.2
2014-Aug-24 06:33N 39°27' W 000°19'0 0.0
2014-Aug-24 05:33N 39°27' W 000°19'0 0.0
2014-Aug-24 04:33N 39°27' W 000°19'0 0.2
2014-Aug-24 03:33N 39°27' W 000°19'0 0.0
2014-Aug-24 02:33N 39°27' W 000°19'0 0.0
2014-Aug-22 15:24N 39°27' W 000°19'  

Dump ship's entire track history